aviador You're here:

CYDN Decoded Metar

DAUPHIN in MB, CANADA
Report Time2018-01-18 13:00:00
UTC Time2018-01-18 13:58:35
Flight Rules mvfr MVFR
Wind120° at 04 kt
W.Decomp.*RWY 14: 3.6 kt HW 1.8 kt LCW
RWY 08: 3.4 kt HW 2.2 kt RCW
RWY 20: 0.2 kt HW 4 kt LCW
W.Rank120° ranks 9
Current wind is below 120° avg. (8.3)
Visibility9999 m
Phenomena:N/A
Clouds:Overcast 012 Hf
Expected CloudBase > 1,600 ft AGL from Temp-Dew spread
Ceiling1,200 ft
Temp-7°C (ISA -20)
Dew Point-11°C (73% RH)
AAT-11.6°C
QNH1006 hPa
Density Alt-1,198 ft
Elevation1,001 ft
Report Wrong Elevation
Raw Report
CYDN 181300Z AUTO 12004KT 9SM OVC012 M07/M11 A2971 RMK SLP082=

Extra information for CYDN:More info

Metar Taf Metar & Taf Last 4 Metars F.Rules Stats Wind Profile Meteogram Temp Stats Airport Information Weather charts Add Link Nearby VenuesMetar ALERT Operation Metar Decoded Social comments